createdAt,value
2023-03-17T00:00:46.881Z,6.43
2023-03-17T00:02:53.527Z,5.80
2023-03-17T00:04:58.415Z,8.10
2023-03-17T00:07:09.383Z,7.97
2023-03-17T00:09:19.929Z,6.47
2023-03-17T00:11:27.377Z,7.47
2023-03-17T00:13:35.997Z,8.82
2023-03-17T00:15:42.897Z,8.20
2023-03-17T00:17:51.075Z,6.88
2023-03-17T00:19:57.476Z,6.45
2023-03-17T00:22:06.876Z,5.90
2023-03-17T00:24:20.724Z,8.20
2023-03-17T00:26:26.767Z,8.60
2023-03-17T00:28:31.698Z,8.18
2023-03-17T00:30:36.641Z,6.97
2023-03-17T00:32:43.192Z,10.18
2023-03-17T00:34:48.682Z,7.75
2023-03-17T00:36:56.122Z,8.57
2023-03-17T00:39:03.701Z,6.60
2023-03-17T00:41:11.303Z,5.25
2023-03-17T00:43:17.804Z,7.85
2023-03-17T00:45:24.935Z,8.35
2023-03-17T00:47:30.357Z,6.90
2023-03-17T00:49:35.353Z,6.65
2023-03-17T00:51:40.505Z,7.65
2023-03-17T00:53:48.161Z,7.57
2023-03-17T00:58:02.211Z,5.82
2023-03-17T01:00:12.135Z,6.40
2023-03-17T01:02:17.698Z,6.00
2023-03-17T01:04:24.824Z,7.10
2023-03-17T01:06:30.156Z,6.45
2023-03-17T01:08:37.227Z,9.43
2023-03-17T01:10:45.877Z,5.97
2023-03-17T01:12:54.480Z,7.82
2023-03-17T01:15:01.762Z,7.72
2023-03-17T01:17:12.801Z,6.43
2023-03-17T01:19:20.130Z,6.70
2023-03-17T01:21:27.086Z,7.97
2023-03-17T01:23:33.981Z,6.05
2023-03-17T01:25:39.778Z,5.95
2023-03-17T01:27:46.816Z,5.68
2023-03-17T01:29:56.262Z,6.97
2023-03-17T01:32:01.743Z,7.35
2023-03-17T01:34:07.283Z,6.40
2023-03-17T01:36:16.106Z,7.80
2023-03-17T01:38:23.024Z,7.78
2023-03-17T01:40:34.458Z,6.65
2023-03-17T01:42:40.883Z,7.55
2023-03-17T01:45:08.736Z,4.93
2023-03-17T01:47:16.602Z,8.52
2023-03-17T01:51:41.598Z,6.60
2023-03-17T01:53:48.882Z,6.40
2023-03-17T01:55:55.450Z,5.57
2023-03-17T01:58:02.207Z,6.88
2023-03-17T02:00:14.030Z,6.20
2023-03-17T02:02:26.254Z,9.98
2023-03-17T02:04:37.809Z,6.72
2023-03-17T02:06:56.896Z,9.05
2023-03-17T02:09:05.568Z,8.05
2023-03-17T02:13:20.525Z,9.13
2023-03-17T02:15:46.327Z,6.85
2023-03-17T02:17:51.906Z,5.70
2023-03-17T02:19:58.119Z,7.05
2023-03-17T02:22:07.652Z,7.55
2023-03-17T02:24:27.842Z,7.03
2023-03-17T02:26:37.734Z,7.00
2023-03-17T02:28:46.280Z,6.72
2023-03-17T02:30:58.682Z,7.70
2023-03-17T02:33:04.144Z,7.25
2023-03-17T02:35:11.825Z,7.80
2023-03-17T02:37:20.920Z,9.82
2023-03-17T02:39:27.063Z,5.93
2023-03-17T02:41:34.252Z,5.82
2023-03-17T02:43:42.946Z,5.32
2023-03-17T02:45:48.990Z,5.78
2023-03-17T02:47:54.824Z,9.70
2023-03-17T02:50:01.220Z,7.97
2023-03-17T02:52:09.521Z,8.75
2023-03-17T02:54:17.993Z,6.70
2023-03-17T02:58:27.795Z,7.22
2023-03-17T03:00:34.939Z,7.82
2023-03-17T03:02:40.149Z,5.25
2023-03-17T03:04:46.673Z,6.57
2023-03-17T03:06:52.405Z,6.40
2023-03-17T03:08:57.314Z,6.85
2023-03-17T03:11:05.114Z,5.30
2023-03-17T03:13:10.063Z,7.10
2023-03-17T03:15:15.720Z,7.35
2023-03-17T03:17:24.225Z,6.97
2023-03-17T03:19:29.894Z,6.93
2023-03-17T03:21:35.103Z,4.32
2023-03-17T03:23:40.026Z,7.18
2023-03-17T03:25:45.428Z,6.53
2023-03-17T03:27:53.296Z,7.65
2023-03-17T03:29:58.667Z,6.90
2023-03-17T03:32:03.699Z,6.55
2023-03-17T03:34:10.547Z,4.88
2023-03-17T03:36:15.626Z,6.38
2023-03-17T03:38:20.832Z,6.68
2023-03-17T03:40:26.158Z,7.88
2023-03-17T03:42:31.430Z,5.55
2023-03-17T03:44:39.201Z,6.07
2023-03-17T03:46:44.455Z,7.88
2023-03-17T03:48:49.649Z,9.35
2023-03-17T03:51:02.000Z,5.10
2023-03-17T03:53:07.283Z,6.93
2023-03-17T03:55:13.570Z,8.95
2023-03-17T03:57:18.773Z,6.93
2023-03-17T03:59:23.927Z,6.70
2023-03-17T04:01:32.644Z,5.97
2023-03-17T04:03:39.847Z,8.13
2023-03-17T04:05:45.238Z,5.97
2023-03-17T04:07:50.664Z,7.55
2023-03-17T04:09:55.825Z,6.30
2023-03-17T04:12:01.037Z,6.97
2023-03-17T04:14:06.463Z,4.95
2023-03-17T04:16:12.593Z,5.70
2023-03-17T04:18:20.277Z,5.25
2023-03-17T04:20:30.862Z,5.13
2023-03-17T04:22:37.331Z,6.47
2023-03-17T04:24:43.133Z,7.65
2023-03-17T04:26:48.140Z,9.20
2023-03-17T04:28:53.363Z,8.70
2023-03-17T04:30:58.585Z,5.80
2023-03-17T04:33:05.316Z,7.00
2023-03-17T04:35:17.153Z,6.97
2023-03-17T04:37:23.138Z,7.25
2023-03-17T04:39:29.099Z,6.10
2023-03-17T04:41:34.562Z,8.50
2023-03-17T04:43:39.656Z,7.20
2023-03-17T04:45:44.821Z,6.15
2023-03-17T04:47:49.861Z,6.28
2023-03-17T04:49:54.797Z,6.60
2023-03-17T04:52:02.678Z,6.93
2023-03-17T04:56:16.287Z,6.88
2023-03-17T04:58:30.440Z,7.13
2023-03-17T05:00:38.881Z,9.60
2023-03-17T05:02:45.370Z,5.72
2023-03-17T05:04:50.607Z,9.32
2023-03-17T05:06:58.534Z,7.13
2023-03-17T05:11:15.066Z,8.35
2023-03-17T05:13:20.123Z,8.43
2023-03-17T05:15:25.334Z,10.65
2023-03-17T05:17:31.911Z,6.63
2023-03-17T05:19:38.494Z,6.82
2023-03-17T05:21:44.058Z,6.97
2023-03-17T05:23:48.986Z,9.60
2023-03-17T05:25:56.789Z,8.00
2023-03-17T05:28:01.730Z,7.97
2023-03-17T05:30:08.406Z,5.13
2023-03-17T05:32:14.215Z,7.80
2023-03-17T05:34:19.683Z,6.25
2023-03-17T05:36:25.504Z,8.88
2023-03-17T05:38:30.410Z,6.43
2023-03-17T05:40:35.673Z,6.93
2023-03-17T05:42:46.934Z,8.25
2023-03-17T05:44:53.489Z,6.93
2023-03-17T05:46:59.972Z,5.60
2023-03-17T05:49:12.760Z,7.97
2023-03-17T05:51:18.544Z,9.75
2023-03-17T05:53:26.179Z,7.70
2023-03-17T05:55:38.415Z,7.93
2023-03-17T05:57:48.659Z,8.60
2023-03-17T05:59:54.387Z,5.70
2023-03-17T06:02:00.081Z,6.15
2023-03-17T06:04:07.818Z,10.57
2023-03-17T06:08:21.637Z,8.60
2023-03-17T06:10:27.838Z,6.47
2023-03-17T06:12:34.416Z,6.88
2023-03-17T06:14:42.025Z,6.97
2023-03-17T06:16:47.566Z,6.88
2023-03-17T06:18:52.453Z,5.72
2023-03-17T06:20:57.875Z,9.75
2023-03-17T06:23:07.148Z,7.70
2023-03-17T06:25:14.742Z,10.15
2023-03-17T06:27:19.707Z,11.60
2023-03-17T06:29:25.108Z,11.70
2023-03-17T06:31:36.072Z,7.93
2023-03-17T06:33:41.584Z,9.68
2023-03-17T06:35:48.239Z,7.50
2023-03-17T06:37:54.772Z,8.23
2023-03-17T06:40:02.201Z,5.18
2023-03-17T06:42:10.129Z,6.47
2023-03-17T06:46:20.207Z,7.65
2023-03-17T06:48:30.200Z,7.93
2023-03-17T06:50:35.341Z,13.43
2023-03-17T06:52:40.864Z,7.28
2023-03-17T06:54:47.673Z,7.03
2023-03-17T06:56:52.563Z,5.18
2023-03-17T06:59:00.425Z,7.47
2023-03-17T07:01:10.166Z,5.47
2023-03-17T07:03:15.729Z,6.60
2023-03-17T07:05:26.873Z,8.07
2023-03-17T07:07:32.159Z,7.85
2023-03-17T07:09:37.293Z,6.03
2023-03-17T07:11:44.044Z,6.25
2023-03-17T07:13:49.171Z,5.32
2023-03-17T07:15:55.591Z,8.38
2023-03-17T07:18:00.708Z,11.40
2023-03-17T07:20:06.483Z,7.00
2023-03-17T07:22:19.137Z,7.15
2023-03-17T07:24:24.131Z,13.23
2023-03-17T07:26:29.064Z,5.82
2023-03-17T07:28:34.071Z,7.90
2023-03-17T07:30:39.107Z,7.57
2023-03-17T07:32:44.073Z,5.93
2023-03-17T07:34:49.354Z,7.68
2023-03-17T07:36:56.835Z,9.18
2023-03-17T07:39:07.019Z,8.75
2023-03-17T07:41:15.359Z,6.45
2023-03-17T07:43:20.281Z,7.82
2023-03-17T07:45:25.671Z,7.35
2023-03-17T07:47:30.958Z,6.07
2023-03-17T07:49:41.662Z,3.65
2023-03-17T07:51:48.141Z,5.55
2023-03-17T07:53:53.128Z,7.10
2023-03-17T07:56:00.638Z,6.13
2023-03-17T07:58:05.653Z,9.43
2023-03-17T08:00:14.405Z,5.78
2023-03-17T08:02:23.527Z,5.47
2023-03-17T08:04:30.733Z,6.25
2023-03-17T08:06:40.715Z,4.45
2023-03-17T08:08:46.146Z,6.25
2023-03-17T08:10:53.831Z,5.85
2023-03-17T08:13:01.521Z,3.78
2023-03-17T08:15:09.400Z,4.53
2023-03-17T08:17:14.556Z,5.60
2023-03-17T08:19:19.716Z,4.13
2023-03-17T08:21:24.883Z,5.82
2023-03-17T08:23:29.764Z,5.15
2023-03-17T08:25:35.000Z,5.68
2023-03-17T08:27:41.982Z,4.80
2023-03-17T08:29:53.630Z,5.65
2023-03-17T08:31:59.134Z,6.03
2023-03-17T08:34:05.245Z,6.22
2023-03-17T08:36:12.882Z,4.72
2023-03-17T08:38:18.313Z,4.22
2023-03-17T08:40:23.478Z,4.63
2023-03-17T08:42:28.394Z,5.25
2023-03-17T08:44:37.314Z,6.65
2023-03-17T08:46:45.620Z,5.30
2023-03-17T08:48:54.109Z,6.10
2023-03-17T08:51:01.282Z,5.18
2023-03-17T08:53:08.486Z,3.97
2023-03-17T08:55:16.403Z,4.88
2023-03-17T08:59:30.853Z,3.63
2023-03-17T09:01:37.610Z,5.18
2023-03-17T09:03:47.048Z,3.35
2023-03-17T09:05:56.040Z,8.38
2023-03-17T09:08:01.304Z,3.70
2023-03-17T09:10:07.819Z,4.22
2023-03-17T09:12:14.775Z,4.82
2023-03-17T09:14:20.069Z,4.27
2023-03-17T09:16:33.939Z,3.60
2023-03-17T09:18:42.377Z,3.22
2023-03-17T09:20:49.861Z,6.13
2023-03-17T09:22:56.472Z,4.10
2023-03-17T09:25:02.213Z,5.63
2023-03-17T09:27:09.495Z,3.70
2023-03-17T09:29:15.589Z,6.20
2023-03-17T09:31:21.252Z,3.78
2023-03-17T09:33:27.236Z,4.47
2023-03-17T09:35:32.476Z,3.25
2023-03-17T09:37:40.351Z,3.22
2023-03-17T09:39:45.322Z,5.03
2023-03-17T09:42:20.006Z,3.47
2023-03-17T09:44:43.053Z,3.22
2023-03-17T09:47:00.858Z,4.35
2023-03-17T09:49:12.020Z,3.40
2023-03-17T09:51:21.816Z,6.68
2023-03-17T09:53:34.296Z,5.05
2023-03-17T09:55:41.631Z,3.05
2023-03-17T09:57:50.395Z,4.57
2023-03-17T10:00:08.895Z,4.60
2023-03-17T10:02:24.891Z,2.72
2023-03-17T10:04:30.152Z,3.20
2023-03-17T10:06:41.926Z,3.17
2023-03-17T10:08:58.176Z,2.58
2023-03-17T10:11:15.952Z,2.70
2023-03-17T10:13:41.092Z,4.03
2023-03-17T10:15:53.730Z,2.72
2023-03-17T10:17:58.712Z,2.80
2023-03-17T10:20:11.448Z,2.53
2023-03-17T10:22:23.677Z,1.77
2023-03-17T10:24:37.831Z,4.72
2023-03-17T10:26:48.523Z,3.13
2023-03-17T10:28:54.592Z,2.72
2023-03-17T10:31:05.193Z,3.90
2023-03-17T10:33:10.363Z,2.13
2023-03-17T10:35:17.336Z,4.00
2023-03-17T10:37:27.312Z,3.75
2023-03-17T10:39:36.701Z,2.78
2023-03-17T10:41:56.192Z,5.05
2023-03-17T10:44:01.517Z,3.03
2023-03-17T10:46:09.754Z,3.83
2023-03-17T10:48:22.216Z,2.97
2023-03-17T10:50:32.479Z,4.20
2023-03-17T10:52:47.350Z,2.20
2023-03-17T10:54:58.497Z,3.30
2023-03-17T10:57:09.468Z,2.20
2023-03-17T10:59:24.798Z,7.05
2023-03-17T11:01:38.334Z,5.80
2023-03-17T11:03:44.689Z,2.67
2023-03-17T11:06:00.233Z,3.15
2023-03-17T11:08:13.761Z,2.45
2023-03-17T11:10:36.517Z,4.97
2023-03-17T11:12:44.013Z,3.65
2023-03-17T11:14:50.797Z,3.22
2023-03-17T11:17:01.166Z,4.00
2023-03-17T11:19:08.524Z,2.63
2023-03-17T11:21:18.918Z,4.30
2023-03-17T11:23:41.037Z,6.38
2023-03-17T11:25:57.475Z,2.20
2023-03-17T11:28:17.896Z,3.17
2023-03-17T11:30:34.711Z,4.72
2023-03-17T11:32:46.295Z,2.03
2023-03-17T11:35:05.907Z,2.53
2023-03-17T11:37:29.129Z,3.60
2023-03-17T11:39:46.230Z,3.80
2023-03-17T11:42:09.857Z,3.17
2023-03-17T11:44:46.297Z,3.45
2023-03-17T11:46:59.548Z,5.90
2023-03-17T11:49:14.745Z,2.95
2023-03-17T11:51:33.286Z,4.00
2023-03-17T11:53:58.400Z,2.45
2023-03-17T11:56:08.195Z,3.00
2023-03-17T11:58:28.638Z,1.88
2023-03-17T12:00:36.835Z,3.70
2023-03-17T12:02:46.727Z,3.60
2023-03-17T12:04:57.400Z,2.50
2023-03-17T12:07:12.170Z,4.25
2023-03-17T12:09:30.707Z,2.30
2023-03-17T12:11:41.504Z,2.40
2023-03-17T12:13:56.810Z,2.88
2023-03-17T12:16:11.347Z,2.85
2023-03-17T12:18:24.140Z,3.15
2023-03-17T12:20:36.945Z,1.88
2023-03-17T12:22:48.669Z,2.33
2023-03-17T12:25:04.624Z,3.22
2023-03-17T12:27:18.559Z,2.72
2023-03-17T12:29:40.274Z,2.53
2023-03-17T12:31:50.827Z,4.57
2023-03-17T12:34:06.476Z,2.25
2023-03-17T12:36:17.756Z,3.70
2023-03-17T12:38:37.549Z,3.13
2023-03-17T12:41:07.090Z,3.80
2023-03-17T12:43:39.925Z,3.28
2023-03-17T12:46:05.135Z,3.28
2023-03-17T12:48:34.531Z,4.35
2023-03-17T12:51:06.861Z,3.55
2023-03-17T12:53:31.462Z,1.90
2023-03-17T12:55:42.252Z,3.58
2023-03-17T12:57:50.399Z,1.92
2023-03-17T13:00:05.652Z,5.65
2023-03-17T13:02:26.633Z,4.47
2023-03-17T13:04:36.299Z,3.38
2023-03-17T13:06:46.810Z,2.60
2023-03-17T13:08:54.455Z,4.05
2023-03-17T13:11:23.632Z,3.00
2023-03-17T13:13:48.865Z,3.90
2023-03-17T13:16:02.833Z,5.30
2023-03-17T13:18:54.521Z,4.65
2023-03-17T13:21:16.600Z,3.53
2023-03-17T13:23:36.946Z,4.57
2023-03-17T13:25:54.107Z,3.90
2023-03-17T13:28:25.771Z,3.85
2023-03-17T13:30:58.351Z,3.53
2023-03-17T13:33:25.890Z,3.65
2023-03-17T13:35:44.649Z,2.08
2023-03-17T13:38:43.189Z,3.72
2023-03-17T13:41:01.494Z,3.75
2023-03-17T13:43:24.350Z,2.50
2023-03-17T13:45:41.435Z,2.85
2023-03-17T13:47:48.088Z,2.88
2023-03-17T13:50:00.847Z,2.28
2023-03-17T13:52:16.372Z,4.82
2023-03-17T13:54:32.489Z,4.20
2023-03-17T13:56:53.875Z,2.42
2023-03-17T13:59:15.536Z,3.13
2023-03-17T14:01:25.156Z,2.03
2023-03-17T14:03:39.005Z,2.22
2023-03-17T14:05:52.707Z,3.50
2023-03-17T14:08:02.176Z,1.95
2023-03-17T14:10:10.680Z,1.95
2023-03-17T14:12:25.769Z,2.75
2023-03-17T14:14:44.825Z,7.10
2023-03-17T14:16:58.737Z,3.35
2023-03-17T14:19:19.949Z,3.30
2023-03-17T14:21:33.615Z,2.35
2023-03-17T14:23:43.689Z,6.57
2023-03-17T14:25:50.505Z,3.20
2023-03-17T14:28:02.490Z,3.28
2023-03-17T14:30:21.641Z,3.90
2023-03-17T14:32:31.670Z,2.20
2023-03-17T14:34:36.954Z,3.63
2023-03-17T14:36:47.842Z,6.40
2023-03-17T14:38:55.189Z,3.92
2023-03-17T14:41:05.690Z,1.92
2023-03-17T14:43:13.884Z,1.83
2023-03-17T14:45:41.217Z,2.20
2023-03-17T14:47:48.585Z,3.08
2023-03-17T14:49:56.244Z,3.70
2023-03-17T14:52:04.733Z,3.30
2023-03-17T14:54:19.391Z,5.82
2023-03-17T14:56:33.974Z,2.38
2023-03-17T14:58:44.741Z,3.83
2023-03-17T15:00:59.263Z,2.40
2023-03-17T15:03:08.228Z,3.80
2023-03-17T15:05:29.268Z,3.78
2023-03-17T15:07:42.508Z,3.60
2023-03-17T15:09:48.173Z,8.32
2023-03-17T15:11:57.520Z,2.35
2023-03-17T15:14:15.629Z,2.50
2023-03-17T15:16:26.478Z,3.05
2023-03-17T15:18:31.448Z,2.53
2023-03-17T15:20:40.463Z,2.92
2023-03-17T15:22:52.449Z,3.53
2023-03-17T15:25:10.628Z,3.47
2023-03-17T15:27:19.549Z,6.38
2023-03-17T15:29:26.086Z,3.83
2023-03-17T15:31:33.268Z,2.55
2023-03-17T15:33:44.672Z,2.47
2023-03-17T15:35:49.812Z,3.83
2023-03-17T15:37:58.236Z,5.85
2023-03-17T15:40:05.738Z,5.55
2023-03-17T15:42:12.507Z,3.20
2023-03-17T15:44:19.766Z,3.00
2023-03-17T15:46:31.119Z,3.80
2023-03-17T15:48:39.100Z,2.97
2023-03-17T15:50:44.345Z,2.63
2023-03-17T15:52:53.716Z,2.33
2023-03-17T15:55:03.570Z,3.03
2023-03-17T15:57:09.501Z,3.85
2023-03-17T15:59:15.684Z,2.92
2023-03-17T16:01:21.819Z,6.57
2023-03-17T16:03:32.934Z,3.10
2023-03-17T16:05:39.177Z,3.35
2023-03-17T16:07:44.110Z,3.28
2023-03-17T16:09:49.019Z,2.47
2023-03-17T16:11:56.562Z,4.82
2023-03-17T16:14:04.508Z,2.28
2023-03-17T16:16:12.083Z,5.10
2023-03-17T16:18:21.300Z,4.88
2023-03-17T16:20:31.001Z,2.85
2023-03-17T16:22:42.736Z,4.60
2023-03-17T16:24:51.045Z,4.85
2023-03-17T16:26:58.526Z,2.33
2023-03-17T16:29:08.339Z,2.83
2023-03-17T16:31:30.865Z,6.93
2023-03-17T16:33:42.028Z,3.70
2023-03-17T16:35:48.795Z,4.10
2023-03-17T16:37:56.282Z,5.77
2023-03-17T16:40:01.277Z,3.22
2023-03-17T16:42:15.277Z,5.00
2023-03-17T16:44:26.251Z,4.25
2023-03-17T16:46:35.763Z,5.28
2023-03-17T16:48:44.460Z,4.00
2023-03-17T16:50:49.432Z,4.53
2023-03-17T16:52:54.872Z,3.58
2023-03-17T16:55:00.049Z,4.15
2023-03-17T16:57:07.622Z,3.13
2023-03-17T16:59:24.447Z,3.03
2023-03-17T17:01:31.648Z,3.65
2023-03-17T17:03:37.822Z,3.63
2023-03-17T17:05:44.322Z,3.30
2023-03-17T17:07:50.556Z,3.43
2023-03-17T17:09:55.813Z,4.25
2023-03-17T17:12:01.168Z,2.88
2023-03-17T17:14:06.374Z,3.33
2023-03-17T17:16:25.750Z,3.55
2023-03-17T17:18:30.926Z,4.15
2023-03-17T17:20:43.928Z,6.53
2023-03-17T17:22:50.349Z,5.10
2023-03-17T17:24:55.224Z,3.58
2023-03-17T17:27:00.310Z,3.58
2023-03-17T17:29:12.189Z,3.90
2023-03-17T17:31:19.767Z,4.60
2023-03-17T17:33:26.023Z,4.72
2023-03-17T17:35:35.847Z,7.25
2023-03-17T17:37:41.109Z,8.55
2023-03-17T17:39:46.164Z,4.22
2023-03-17T17:41:51.326Z,8.77
2023-03-17T17:43:56.527Z,9.73
2023-03-17T17:46:02.079Z,9.85
2023-03-17T17:48:09.660Z,15.27
2023-03-17T17:50:20.617Z,14.98
2023-03-17T17:52:26.707Z,9.63
2023-03-17T17:54:31.906Z,11.95
2023-03-17T17:56:41.780Z,12.27
2023-03-17T17:58:47.580Z,10.75
2023-03-17T18:00:54.323Z,10.20
2023-03-17T18:03:01.072Z,9.50
2023-03-17T18:05:10.033Z,11.73
2023-03-17T18:07:15.473Z,9.75
2023-03-17T18:09:21.622Z,11.25
2023-03-17T18:11:26.919Z,8.85
2023-03-17T18:13:31.866Z,6.60
2023-03-17T18:15:38.484Z,7.93
2023-03-17T18:17:43.712Z,10.50
2023-03-17T18:19:48.707Z,10.52
2023-03-17T18:21:56.473Z,12.73
2023-03-17T18:24:04.391Z,9.40
2023-03-17T18:26:09.620Z,9.02
2023-03-17T18:28:14.549Z,9.75
2023-03-17T18:30:25.237Z,9.95
2023-03-17T18:32:31.163Z,9.23
2023-03-17T18:34:43.446Z,14.98
2023-03-17T18:36:51.328Z,13.02
2023-03-17T18:38:59.545Z,10.15
2023-03-17T18:41:06.883Z,12.73
2023-03-17T18:43:12.052Z,13.57
2023-03-17T18:45:17.314Z,18.58
2023-03-17T18:47:22.461Z,16.05
2023-03-17T18:49:28.306Z,18.40
2023-03-17T18:51:34.653Z,20.63
2023-03-17T18:53:40.109Z,17.45
2023-03-17T18:55:47.596Z,16.75
2023-03-17T19:00:03.038Z,9.40
2023-03-17T19:02:08.549Z,15.02
2023-03-17T19:04:14.913Z,14.63
2023-03-17T19:06:22.268Z,13.77
2023-03-17T19:08:27.623Z,13.35
2023-03-17T19:10:32.889Z,14.23
2023-03-17T19:12:41.534Z,10.27
2023-03-17T19:14:48.461Z,5.63
2023-03-17T19:16:53.639Z,5.28
2023-03-17T19:18:59.182Z,7.13
2023-03-17T19:21:07.556Z,7.35
2023-03-17T19:23:12.542Z,6.22
2023-03-17T19:25:20.444Z,3.78
2023-03-17T19:27:25.404Z,5.40
2023-03-17T19:29:35.177Z,7.13
2023-03-17T19:31:41.620Z,8.25
2023-03-17T19:33:47.074Z,8.65
2023-03-17T19:35:58.726Z,7.13
2023-03-17T19:38:04.612Z,7.47
2023-03-17T19:40:13.383Z,9.35
2023-03-17T19:42:18.357Z,11.07
2023-03-17T19:44:23.430Z,8.20
2023-03-17T19:46:31.640Z,7.00
2023-03-17T19:48:37.658Z,6.10
2023-03-17T19:50:44.511Z,11.32
2023-03-17T19:52:49.456Z,7.20
2023-03-17T19:54:54.506Z,10.15
2023-03-17T19:57:00.753Z,10.20
2023-03-17T19:59:07.415Z,10.63
2023-03-17T20:01:14.190Z,5.88
2023-03-17T20:03:25.662Z,7.03
2023-03-17T20:05:31.278Z,8.27
2023-03-17T20:07:36.536Z,6.43
2023-03-17T20:09:42.316Z,11.10
2023-03-17T20:11:48.652Z,9.05
2023-03-17T20:13:53.902Z,12.60
2023-03-17T20:15:58.845Z,12.32
2023-03-17T20:18:04.269Z,10.68
2023-03-17T20:20:14.541Z,8.55
2023-03-17T20:22:19.736Z,8.85
2023-03-17T20:24:24.628Z,16.17
2023-03-17T20:26:30.050Z,19.58
2023-03-17T20:28:35.775Z,13.68
2023-03-17T20:30:43.466Z,14.20
2023-03-17T20:32:49.397Z,13.57
2023-03-17T20:34:56.898Z,11.77
2023-03-17T20:37:04.952Z,12.70
2023-03-17T20:39:13.741Z,9.57
2023-03-17T20:41:21.496Z,9.85
2023-03-17T20:43:26.903Z,7.22
2023-03-17T20:45:32.346Z,13.45
2023-03-17T20:47:37.638Z,5.82
2023-03-17T20:49:42.668Z,7.07
2023-03-17T20:51:48.106Z,10.98
2023-03-17T20:53:56.867Z,11.40
2023-03-17T20:56:04.773Z,10.18
2023-03-17T21:00:20.189Z,13.68
2023-03-17T21:02:26.210Z,11.35
2023-03-17T21:04:32.926Z,12.02
2023-03-17T21:06:42.112Z,10.38
2023-03-17T21:08:47.330Z,9.90
2023-03-17T21:10:56.090Z,11.02
2023-03-17T21:13:01.265Z,13.23
2023-03-17T21:15:07.915Z,12.15
2023-03-17T21:17:14.230Z,15.23
2023-03-17T21:19:20.040Z,14.93
2023-03-17T21:21:26.544Z,17.25
2023-03-17T21:23:33.779Z,11.43
2023-03-17T21:25:39.077Z,12.57
2023-03-17T21:27:46.677Z,12.98
2023-03-17T21:29:52.288Z,13.82
2023-03-17T21:32:00.424Z,12.77
2023-03-17T21:34:05.790Z,10.43
2023-03-17T21:36:14.071Z,10.90
2023-03-17T21:38:19.073Z,9.10
2023-03-17T21:40:26.781Z,11.32
2023-03-17T21:42:31.879Z,11.57
2023-03-17T21:44:40.199Z,13.15
2023-03-17T21:46:45.233Z,14.82
2023-03-17T21:48:50.141Z,13.93
2023-03-17T21:50:55.095Z,11.45
2023-03-17T21:53:00.145Z,10.23
2023-03-17T21:55:07.703Z,12.55
2023-03-17T21:57:14.598Z,12.32
2023-03-17T21:59:22.073Z,15.57
2023-03-17T22:01:29.702Z,11.20
2023-03-17T22:03:34.887Z,12.80
2023-03-17T22:05:39.924Z,14.38
2023-03-17T22:07:47.109Z,16.83
2023-03-17T22:09:57.069Z,12.85
2023-03-17T22:12:03.736Z,17.25
2023-03-17T22:14:10.118Z,14.55
2023-03-17T22:16:16.795Z,8.90
2023-03-17T22:18:24.494Z,8.10
2023-03-17T22:20:30.320Z,10.18
2023-03-17T22:22:35.873Z,8.98
2023-03-17T22:24:41.390Z,8.65
2023-03-17T22:26:46.603Z,9.13
2023-03-17T22:28:53.147Z,8.63
2023-03-17T22:30:58.468Z,10.05
2023-03-17T22:33:03.384Z,10.98
2023-03-17T22:35:12.294Z,12.10
2023-03-17T22:37:17.398Z,10.25
2023-03-17T22:39:22.730Z,9.88
2023-03-17T22:41:32.293Z,11.10
2023-03-17T22:45:46.948Z,14.05
2023-03-17T22:47:52.320Z,11.20
2023-03-17T22:49:58.976Z,11.52
2023-03-17T22:52:08.635Z,11.32
2023-03-17T22:54:14.007Z,9.45
2023-03-17T22:56:20.550Z,10.95
2023-03-17T22:58:25.499Z,11.07
2023-03-17T23:00:32.721Z,9.98
2023-03-17T23:02:40.726Z,11.30
2023-03-17T23:04:45.606Z,11.15
2023-03-17T23:06:52.415Z,14.32
2023-03-17T23:09:01.888Z,9.98
2023-03-17T23:11:12.617Z,13.05
2023-03-17T23:13:17.657Z,11.75
2023-03-17T23:15:30.741Z,11.73
2023-03-17T23:17:38.490Z,11.63
2023-03-17T23:19:46.274Z,14.20
2023-03-17T23:21:51.827Z,13.50
2023-03-17T23:24:02.044Z,11.98
2023-03-17T23:26:09.640Z,16.83
2023-03-17T23:28:15.599Z,12.52
2023-03-17T23:30:21.238Z,13.52
2023-03-17T23:32:27.594Z,15.60
2023-03-17T23:34:35.656Z,13.00
2023-03-17T23:36:41.216Z,15.63
2023-03-17T23:38:47.121Z,11.57
2023-03-17T23:40:59.457Z,11.35
2023-03-17T23:43:05.565Z,13.30
2023-03-17T23:45:12.504Z,11.18
2023-03-17T23:47:17.893Z,10.63
2023-03-17T23:49:26.176Z,13.27
2023-03-17T23:51:37.256Z,12.98
2023-03-17T23:53:44.353Z,12.45
2023-03-17T23:55:49.971Z,11.82
2023-03-17T23:57:58.309Z,10.50
